sensor_id;sensor_type;location;lat;lon;timestamp;temperature;humidity
11136;DHT22;5622;50.840;4.948;2023-03-24T00:01:05;12.90;99.90
11136;DHT22;5622;50.840;4.948;2023-03-24T00:03:32;12.90;99.90
11136;DHT22;5622;50.840;4.948;2023-03-24T00:06:04;12.90;99.90
11136;DHT22;5622;50.840;4.948;2023-03-24T00:08:34;12.80;99.90
11136;DHT22;5622;50.840;4.948;2023-03-24T00:11:03;12.80;99.90
11136;DHT22;5622;50.840;4.948;2023-03-24T00:13:32;12.80;99.90
11136;DHT22;5622;50.840;4.948;2023-03-24T00:16:03;12.90;99.90
11136;DHT22;5622;50.840;4.948;2023-03-24T00:18:30;12.80;99.90
11136;DHT22;5622;50.840;4.948;2023-03-24T00:20:58;12.80;99.90
11136;DHT22;5622;50.840;4.948;2023-03-24T00:23:28;12.80;99.90
11136;DHT22;5622;50.840;4.948;2023-03-24T00:26:01;12.80;99.90
11136;DHT22;5622;50.840;4.948;2023-03-24T00:28:29;12.90;99.90
11136;DHT22;5622;50.840;4.948;2023-03-24T00:30:58;12.90;99.90
11136;DHT22;5622;50.840;4.948;2023-03-24T00:33:26;12.80;99.90
11136;DHT22;5622;50.840;4.948;2023-03-24T00:35:57;12.80;99.90
11136;DHT22;5622;50.840;4.948;2023-03-24T00:38:27;12.80;99.90
11136;DHT22;5622;50.840;4.948;2023-03-24T00:40:54;12.80;99.90
11136;DHT22;5622;50.840;4.948;2023-03-24T00:43:21;12.80;99.90
11136;DHT22;5622;50.840;4.948;2023-03-24T00:45:48;12.80;99.90
11136;DHT22;5622;50.840;4.948;2023-03-24T00:48:18;12.80;99.90
11136;DHT22;5622;50.840;4.948;2023-03-24T00:50:50;12.90;99.90
11136;DHT22;5622;50.840;4.948;2023-03-24T00:53:18;12.80;99.90
11136;DHT22;5622;50.840;4.948;2023-03-24T00:55:49;12.90;99.90
11136;DHT22;5622;50.840;4.948;2023-03-24T00:58:17;12.90;99.90
11136;DHT22;5622;50.840;4.948;2023-03-24T01:00:46;12.90;99.90
11136;DHT22;5622;50.840;4.948;2023-03-24T01:03:13;12.90;99.90
11136;DHT22;5622;50.840;4.948;2023-03-24T01:05:41;12.90;99.90
11136;DHT22;5622;50.840;4.948;2023-03-24T01:08:14;12.90;99.90
11136;DHT22;5622;50.840;4.948;2023-03-24T01:10:46;12.90;99.90
11136;DHT22;5622;50.840;4.948;2023-03-24T01:13:21;12.90;99.90
11136;DHT22;5622;50.840;4.948;2023-03-24T01:15:49;12.90;99.90
11136;DHT22;5622;50.840;4.948;2023-03-24T01:18:17;12.90;99.90
11136;DHT22;5622;50.840;4.948;2023-03-24T01:20:46;12.90;99.90
11136;DHT22;5622;50.840;4.948;2023-03-24T01:23:17;12.90;99.90
11136;DHT22;5622;50.840;4.948;2023-03-24T01:25:46;12.90;99.90
11136;DHT22;5622;50.840;4.948;2023-03-24T01:28:16;12.90;99.90
11136;DHT22;5622;50.840;4.948;2023-03-24T01:30:48;12.90;99.90
11136;DHT22;5622;50.840;4.948;2023-03-24T01:33:17;13.00;99.90
11136;DHT22;5622;50.840;4.948;2023-03-24T01:35:44;13.00;99.90
11136;DHT22;5622;50.840;4.948;2023-03-24T01:38:12;13.10;99.90
11136;DHT22;5622;50.840;4.948;2023-03-24T01:40:42;13.10;99.90
11136;DHT22;5622;50.840;4.948;2023-03-24T01:43:17;13.10;99.90
11136;DHT22;5622;50.840;4.948;2023-03-24T01:46:03;13.10;99.90
11136;DHT22;5622;50.840;4.948;2023-03-24T01:48:35;13.20;99.90
11136;DHT22;5622;50.840;4.948;2023-03-24T01:51:07;13.10;99.90
11136;DHT22;5622;50.840;4.948;2023-03-24T01:53:45;13.20;99.90
11136;DHT22;5622;50.840;4.948;2023-03-24T01:56:13;13.20;99.90
11136;DHT22;5622;50.840;4.948;2023-03-24T01:58:44;13.20;99.90
11136;DHT22;5622;50.840;4.948;2023-03-24T02:01:14;13.20;99.90
11136;DHT22;5622;50.840;4.948;2023-03-24T02:03:42;13.30;99.90
11136;DHT22;5622;50.840;4.948;2023-03-24T02:06:11;13.40;99.90
11136;DHT22;5622;50.840;4.948;2023-03-24T02:08:41;13.40;99.90
11136;DHT22;5622;50.840;4.948;2023-03-24T02:11:10;13.50;99.90
11136;DHT22;5622;50.840;4.948;2023-03-24T02:13:38;13.50;99.90
11136;DHT22;5622;50.840;4.948;2023-03-24T02:16:17;13.60;99.90
11136;DHT22;5622;50.840;4.948;2023-03-24T02:18:54;13.50;99.90
11136;DHT22;5622;50.840;4.948;2023-03-24T02:22:00;13.60;99.90
11136;DHT22;5622;50.840;4.948;2023-03-24T02:34:18;13.50;99.90
11136;DHT22;5622;50.840;4.948;2023-03-24T02:43:16;13.30;99.90
11136;DHT22;5622;50.840;4.948;2023-03-24T02:45:53;13.10;99.90
11136;DHT22;5622;50.840;4.948;2023-03-24T02:48:33;13.20;99.90
11136;DHT22;5622;50.840;4.948;2023-03-24T02:51:08;13.10;99.90
11136;DHT22;5622;50.840;4.948;2023-03-24T02:53:46;13.10;99.90
11136;DHT22;5622;50.840;4.948;2023-03-24T02:56:20;13.10;99.90
11136;DHT22;5622;50.840;4.948;2023-03-24T02:58:52;13.00;99.90
11136;DHT22;5622;50.840;4.948;2023-03-24T03:01:22;13.00;99.90
11136;DHT22;5622;50.840;4.948;2023-03-24T03:03:59;13.00;99.90
11136;DHT22;5622;50.840;4.948;2023-03-24T03:06:29;13.00;99.90
11136;DHT22;5622;50.840;4.948;2023-03-24T03:09:02;12.90;99.90
11136;DHT22;5622;50.840;4.948;2023-03-24T03:11:33;12.80;99.90
11136;DHT22;5622;50.840;4.948;2023-03-24T03:14:04;12.80;99.90
11136;DHT22;5622;50.840;4.948;2023-03-24T03:16:36;12.70;99.90
11136;DHT22;5622;50.840;4.948;2023-03-24T03:19:08;12.60;99.90
11136;DHT22;5622;50.840;4.948;2023-03-24T03:21:40;12.50;99.90
11136;DHT22;5622;50.840;4.948;2023-03-24T03:24:11;12.40;99.90
11136;DHT22;5622;50.840;4.948;2023-03-24T03:26:42;12.30;99.90
11136;DHT22;5622;50.840;4.948;2023-03-24T03:29:14;12.20;99.90
11136;DHT22;5622;50.840;4.948;2023-03-24T03:31:45;12.10;99.90
11136;DHT22;5622;50.840;4.948;2023-03-24T03:34:21;11.90;99.90
11136;DHT22;5622;50.840;4.948;2023-03-24T03:36:55;11.90;99.90
11136;DHT22;5622;50.840;4.948;2023-03-24T03:39:28;11.80;99.90
11136;DHT22;5622;50.840;4.948;2023-03-24T03:41:57;11.80;99.90
11136;DHT22;5622;50.840;4.948;2023-03-24T03:44:25;11.70;99.90
11136;DHT22;5622;50.840;4.948;2023-03-24T03:46:52;11.60;99.90
11136;DHT22;5622;50.840;4.948;2023-03-24T03:49:22;11.60;99.90
11136;DHT22;5622;50.840;4.948;2023-03-24T03:51:51;11.60;99.90
11136;DHT22;5622;50.840;4.948;2023-03-24T03:54:19;11.60;99.90
11136;DHT22;5622;50.840;4.948;2023-03-24T03:56:48;11.50;99.90
11136;DHT22;5622;50.840;4.948;2023-03-24T03:59:27;11.50;99.90
11136;DHT22;5622;50.840;4.948;2023-03-24T04:01:55;11.40;99.90
11136;DHT22;5622;50.840;4.948;2023-03-24T04:07:23;11.40;99.90
11136;DHT22;5622;50.840;4.948;2023-03-24T04:09:58;11.30;99.90
11136;DHT22;5622;50.840;4.948;2023-03-24T04:12:55;11.30;99.90
11136;DHT22;5622;50.840;4.948;2023-03-24T04:15:40;11.30;99.90
11136;DHT22;5622;50.840;4.948;2023-03-24T04:18:39;11.20;99.90
11136;DHT22;5622;50.840;4.948;2023-03-24T04:21:23;11.20;99.90
11136;DHT22;5622;50.840;4.948;2023-03-24T04:24:01;11.10;99.90
11136;DHT22;5622;50.840;4.948;2023-03-24T04:26:36;11.10;99.90
11136;DHT22;5622;50.840;4.948;2023-03-24T04:29:13;11.10;99.90
11136;DHT22;5622;50.840;4.948;2023-03-24T04:31:45;11.00;99.90
11136;DHT22;5622;50.840;4.948;2023-03-24T04:34:19;10.90;99.90
11136;DHT22;5622;50.840;4.948;2023-03-24T04:36:50;10.90;99.90
11136;DHT22;5622;50.840;4.948;2023-03-24T04:39:21;10.90;99.90
11136;DHT22;5622;50.840;4.948;2023-03-24T04:41:53;10.90;99.90
11136;DHT22;5622;50.840;4.948;2023-03-24T04:44:22;10.90;99.90
11136;DHT22;5622;50.840;4.948;2023-03-24T04:46:55;10.90;99.90
11136;DHT22;5622;50.840;4.948;2023-03-24T04:49:22;10.90;99.90
11136;DHT22;5622;50.840;4.948;2023-03-24T04:51:52;10.90;99.90
11136;DHT22;5622;50.840;4.948;2023-03-24T04:54:20;10.90;99.90
11136;DHT22;5622;50.840;4.948;2023-03-24T04:56:48;10.90;99.90
11136;DHT22;5622;50.840;4.948;2023-03-24T04:59:16;10.90;99.90
11136;DHT22;5622;50.840;4.948;2023-03-24T05:01:44;10.90;99.90
11136;DHT22;5622;50.840;4.948;2023-03-24T05:04:15;10.90;99.90
11136;DHT22;5622;50.840;4.948;2023-03-24T05:06:43;10.90;99.90
11136;DHT22;5622;50.840;4.948;2023-03-24T05:09:11;10.90;99.90
11136;DHT22;5622;50.840;4.948;2023-03-24T05:11:39;10.90;99.90
11136;DHT22;5622;50.840;4.948;2023-03-24T05:14:06;10.90;99.90
11136;DHT22;5622;50.840;4.948;2023-03-24T05:16:34;10.90;99.90
11136;DHT22;5622;50.840;4.948;2023-03-24T05:19:01;10.80;99.90
11136;DHT22;5622;50.840;4.948;2023-03-24T05:21:30;10.80;99.90
11136;DHT22;5622;50.840;4.948;2023-03-24T05:23:57;10.80;99.90
11136;DHT22;5622;50.840;4.948;2023-03-24T05:26:25;10.80;99.90
11136;DHT22;5622;50.840;4.948;2023-03-24T05:28:52;10.80;99.90
11136;DHT22;5622;50.840;4.948;2023-03-24T05:31:19;10.80;99.90
11136;DHT22;5622;50.840;4.948;2023-03-24T05:33:46;10.80;99.90
11136;DHT22;5622;50.840;4.948;2023-03-24T05:36:14;10.70;99.90
11136;DHT22;5622;50.840;4.948;2023-03-24T05:38:43;10.80;99.90
11136;DHT22;5622;50.840;4.948;2023-03-24T05:41:10;10.70;99.90
11136;DHT22;5622;50.840;4.948;2023-03-24T05:43:37;10.80;99.90
11136;DHT22;5622;50.840;4.948;2023-03-24T05:46:05;10.70;99.90
11136;DHT22;5622;50.840;4.948;2023-03-24T05:48:32;10.70;99.90
11136;DHT22;5622;50.840;4.948;2023-03-24T05:50:59;10.70;99.90
11136;DHT22;5622;50.840;4.948;2023-03-24T05:53:26;10.60;99.90
11136;DHT22;5622;50.840;4.948;2023-03-24T05:55:55;10.60;99.90
11136;DHT22;5622;50.840;4.948;2023-03-24T05:58:23;10.60;99.90
11136;DHT22;5622;50.840;4.948;2023-03-24T06:00:50;10.50;99.90
11136;DHT22;5622;50.840;4.948;2023-03-24T06:03:19;10.50;99.90
11136;DHT22;5622;50.840;4.948;2023-03-24T06:05:46;10.60;99.90
11136;DHT22;5622;50.840;4.948;2023-03-24T06:08:13;10.50;99.90
11136;DHT22;5622;50.840;4.948;2023-03-24T06:10:41;10.50;99.90
11136;DHT22;5622;50.840;4.948;2023-03-24T06:13:10;10.50;99.90
11136;DHT22;5622;50.840;4.948;2023-03-24T06:15:37;10.50;99.90
11136;DHT22;5622;50.840;4.948;2023-03-24T06:18:07;10.50;99.90
11136;DHT22;5622;50.840;4.948;2023-03-24T06:20:34;10.60;99.90
11136;DHT22;5622;50.840;4.948;2023-03-24T06:23:01;10.50;99.90
11136;DHT22;5622;50.840;4.948;2023-03-24T06:25:29;10.50;99.90
11136;DHT22;5622;50.840;4.948;2023-03-24T06:27:58;10.60;99.90
11136;DHT22;5622;50.840;4.948;2023-03-24T06:30:31;10.50;99.90
11136;DHT22;5622;50.840;4.948;2023-03-24T06:32:59;10.50;99.90
11136;DHT22;5622;50.840;4.948;2023-03-24T06:35:26;10.50;99.90
11136;DHT22;5622;50.840;4.948;2023-03-24T06:37:53;10.50;99.90
11136;DHT22;5622;50.840;4.948;2023-03-24T06:40:21;10.40;99.90
11136;DHT22;5622;50.840;4.948;2023-03-24T06:42:48;10.50;99.90
11136;DHT22;5622;50.840;4.948;2023-03-24T06:45:15;10.40;99.90
11136;DHT22;5622;50.840;4.948;2023-03-24T06:47:44;10.40;99.90
11136;DHT22;5622;50.840;4.948;2023-03-24T06:50:11;10.40;99.90
11136;DHT22;5622;50.840;4.948;2023-03-24T06:52:38;10.40;99.90
11136;DHT22;5622;50.840;4.948;2023-03-24T06:55:06;10.50;99.90
11136;DHT22;5622;50.840;4.948;2023-03-24T06:57:34;10.50;99.90
11136;DHT22;5622;50.840;4.948;2023-03-24T07:00:01;10.50;99.90
11136;DHT22;5622;50.840;4.948;2023-03-24T07:02:30;10.60;99.90
11136;DHT22;5622;50.840;4.948;2023-03-24T07:05:01;10.60;99.90
11136;DHT22;5622;50.840;4.948;2023-03-24T07:07:31;10.60;99.90
11136;DHT22;5622;50.840;4.948;2023-03-24T07:09:58;10.60;99.90
11136;DHT22;5622;50.840;4.948;2023-03-24T07:12:25;10.70;99.90
11136;DHT22;5622;50.840;4.948;2023-03-24T07:14:53;10.70;99.90
11136;DHT22;5622;50.840;4.948;2023-03-24T07:17:20;10.70;99.90
11136;DHT22;5622;50.840;4.948;2023-03-24T07:19:47;10.70;99.90
11136;DHT22;5622;50.840;4.948;2023-03-24T07:22:16;10.80;99.90
11136;DHT22;5622;50.840;4.948;2023-03-24T07:24:43;10.80;99.90
11136;DHT22;5622;50.840;4.948;2023-03-24T07:27:10;10.80;99.90
11136;DHT22;5622;50.840;4.948;2023-03-24T07:29:37;10.90;99.90
11136;DHT22;5622;50.840;4.948;2023-03-24T07:32:04;10.90;99.90
11136;DHT22;5622;50.840;4.948;2023-03-24T07:34:33;11.00;99.90
11136;DHT22;5622;50.840;4.948;2023-03-24T07:37:01;11.00;99.90
11136;DHT22;5622;50.840;4.948;2023-03-24T07:39:30;11.10;99.90
11136;DHT22;5622;50.840;4.948;2023-03-24T07:41:57;11.20;99.90
11136;DHT22;5622;50.840;4.948;2023-03-24T07:44:27;11.30;99.90
11136;DHT22;5622;50.840;4.948;2023-03-24T07:46:54;11.40;99.90
11136;DHT22;5622;50.840;4.948;2023-03-24T07:49:22;11.50;99.90
11136;DHT22;5622;50.840;4.948;2023-03-24T07:51:49;11.60;99.90
11136;DHT22;5622;50.840;4.948;2023-03-24T07:54:16;11.60;99.90
11136;DHT22;5622;50.840;4.948;2023-03-24T07:56:45;11.70;99.90
11136;DHT22;5622;50.840;4.948;2023-03-24T07:59:12;11.80;99.90
11136;DHT22;5622;50.840;4.948;2023-03-24T08:01:39;11.90;99.90
11136;DHT22;5622;50.840;4.948;2023-03-24T08:04:06;12.10;99.90
11136;DHT22;5622;50.840;4.948;2023-03-24T08:06:33;12.30;99.90
11136;DHT22;5622;50.840;4.948;2023-03-24T08:09:00;12.30;99.90
11136;DHT22;5622;50.840;4.948;2023-03-24T08:11:29;12.20;99.90
11136;DHT22;5622;50.840;4.948;2023-03-24T08:13:57;12.20;99.90
11136;DHT22;5622;50.840;4.948;2023-03-24T08:16:25;12.10;99.90
11136;DHT22;5622;50.840;4.948;2023-03-24T08:18:52;12.10;99.90
11136;DHT22;5622;50.840;4.948;2023-03-24T08:21:22;12.10;99.90
11136;DHT22;5622;50.840;4.948;2023-03-24T08:23:50;12.10;99.90
11136;DHT22;5622;50.840;4.948;2023-03-24T08:26:17;12.10;99.90
11136;DHT22;5622;50.840;4.948;2023-03-24T08:28:44;12.00;99.90
11136;DHT22;5622;50.840;4.948;2023-03-24T08:31:13;12.00;99.90
11136;DHT22;5622;50.840;4.948;2023-03-24T08:33:40;12.00;99.90
11136;DHT22;5622;50.840;4.948;2023-03-24T08:36:07;12.00;99.90
11136;DHT22;5622;50.840;4.948;2023-03-24T08:38:35;12.10;99.90
11136;DHT22;5622;50.840;4.948;2023-03-24T08:41:05;12.20;99.90
11136;DHT22;5622;50.840;4.948;2023-03-24T08:43:34;12.40;99.90
11136;DHT22;5622;50.840;4.948;2023-03-24T08:46:02;12.70;99.90
11136;DHT22;5622;50.840;4.948;2023-03-24T08:48:31;13.00;99.90
11136;DHT22;5622;50.840;4.948;2023-03-24T08:50:58;13.20;99.90
11136;DHT22;5622;50.840;4.948;2023-03-24T08:53:25;13.40;99.90
11136;DHT22;5622;50.840;4.948;2023-03-24T08:55:52;13.60;99.90
11136;DHT22;5622;50.840;4.948;2023-03-24T08:58:20;13.70;99.90
11136;DHT22;5622;50.840;4.948;2023-03-24T09:00:48;13.60;99.90
11136;DHT22;5622;50.840;4.948;2023-03-24T09:03:17;13.70;99.90
11136;DHT22;5622;50.840;4.948;2023-03-24T09:05:48;13.60;99.90
11136;DHT22;5622;50.840;4.948;2023-03-24T09:08:17;13.60;99.90
11136;DHT22;5622;50.840;4.948;2023-03-24T09:10:45;13.60;99.90
11136;DHT22;5622;50.840;4.948;2023-03-24T09:13:12;13.70;99.90
11136;DHT22;5622;50.840;4.948;2023-03-24T09:15:44;13.70;99.90
11136;DHT22;5622;50.840;4.948;2023-03-24T09:18:11;13.70;99.90
11136;DHT22;5622;50.840;4.948;2023-03-24T09:20:38;13.60;99.90
11136;DHT22;5622;50.840;4.948;2023-03-24T09:23:06;13.50;99.90
11136;DHT22;5622;50.840;4.948;2023-03-24T09:25:33;13.50;99.90
11136;DHT22;5622;50.840;4.948;2023-03-24T09:28:01;13.50;99.90
11136;DHT22;5622;50.840;4.948;2023-03-24T09:30:28;13.50;99.90
11136;DHT22;5622;50.840;4.948;2023-03-24T09:32:55;13.40;99.90
11136;DHT22;5622;50.840;4.948;2023-03-24T09:35:24;13.50;99.90
11136;DHT22;5622;50.840;4.948;2023-03-24T09:37:52;13.70;99.90
11136;DHT22;5622;50.840;4.948;2023-03-24T09:40:23;13.80;99.90
11136;DHT22;5622;50.840;4.948;2023-03-24T09:42:54;13.80;99.90
11136;DHT22;5622;50.840;4.948;2023-03-24T09:45:25;13.70;99.90
11136;DHT22;5622;50.840;4.948;2023-03-24T09:47:59;13.60;99.90
11136;DHT22;5622;50.840;4.948;2023-03-24T09:50:34;13.50;99.90
11136;DHT22;5622;50.840;4.948;2023-03-24T09:53:06;13.40;99.90
11136;DHT22;5622;50.840;4.948;2023-03-24T09:55:38;13.30;99.90
11136;DHT22;5622;50.840;4.948;2023-03-24T09:58:11;13.30;99.90
11136;DHT22;5622;50.840;4.948;2023-03-24T10:00:39;13.30;99.90
11136;DHT22;5622;50.840;4.948;2023-03-24T10:03:13;13.30;99.90
11136;DHT22;5622;50.840;4.948;2023-03-24T10:05:50;13.30;99.90
11136;DHT22;5622;50.840;4.948;2023-03-24T10:08:25;13.40;99.90
11136;DHT22;5622;50.840;4.948;2023-03-24T10:11:00;13.30;99.90
11136;DHT22;5622;50.840;4.948;2023-03-24T10:13:37;13.40;99.90
11136;DHT22;5622;50.840;4.948;2023-03-24T10:16:11;13.30;99.90
11136;DHT22;5622;50.840;4.948;2023-03-24T10:18:46;13.40;99.90
11136;DHT22;5622;50.840;4.948;2023-03-24T10:21:18;13.40;99.90
11136;DHT22;5622;50.840;4.948;2023-03-24T10:23:52;13.40;99.90
11136;DHT22;5622;50.840;4.948;2023-03-24T10:26:33;13.40;99.90
11136;DHT22;5622;50.840;4.948;2023-03-24T10:29:12;13.40;99.90
11136;DHT22;5622;50.840;4.948;2023-03-24T10:31:46;13.50;99.90
11136;DHT22;5622;50.840;4.948;2023-03-24T10:34:14;13.60;99.90
11136;DHT22;5622;50.840;4.948;2023-03-24T10:36:42;13.60;99.90
11136;DHT22;5622;50.840;4.948;2023-03-24T10:39:14;13.60;99.90
11136;DHT22;5622;50.840;4.948;2023-03-24T10:41:43;13.60;99.90
11136;DHT22;5622;50.840;4.948;2023-03-24T10:44:11;13.70;99.90
11136;DHT22;5622;50.840;4.948;2023-03-24T10:46:44;13.80;99.90
11136;DHT22;5622;50.840;4.948;2023-03-24T10:49:16;14.10;99.90
11136;DHT22;5622;50.840;4.948;2023-03-24T10:51:45;14.30;99.90
11136;DHT22;5622;50.840;4.948;2023-03-24T10:54:16;14.40;99.90
11136;DHT22;5622;50.840;4.948;2023-03-24T10:56:46;14.40;99.90
11136;DHT22;5622;50.840;4.948;2023-03-24T10:59:24;14.50;99.90
11136;DHT22;5622;50.840;4.948;2023-03-24T11:02:02;14.70;99.90
11136;DHT22;5622;50.840;4.948;2023-03-24T11:04:31;14.80;99.90
11136;DHT22;5622;50.840;4.948;2023-03-24T11:07:05;14.90;99.90
11136;DHT22;5622;50.840;4.948;2023-03-24T11:09:41;15.10;99.90
11136;DHT22;5622;50.840;4.948;2023-03-24T11:12:24;15.20;99.90
11136;DHT22;5622;50.840;4.948;2023-03-24T11:14:52;15.30;99.90
11136;DHT22;5622;50.840;4.948;2023-03-24T11:17:27;15.30;99.90
11136;DHT22;5622;50.840;4.948;2023-03-24T11:19:55;15.20;99.90
11136;DHT22;5622;50.840;4.948;2023-03-24T11:22:24;15.10;99.90
11136;DHT22;5622;50.840;4.948;2023-03-24T11:24:54;14.90;99.90
11136;DHT22;5622;50.840;4.948;2023-03-24T11:27:24;14.80;99.90
11136;DHT22;5622;50.840;4.948;2023-03-24T11:29:53;14.60;99.90
11136;DHT22;5622;50.840;4.948;2023-03-24T11:32:24;14.40;99.90
11136;DHT22;5622;50.840;4.948;2023-03-24T11:35:00;14.30;99.90
11136;DHT22;5622;50.840;4.948;2023-03-24T11:37:31;14.20;99.90
11136;DHT22;5622;50.840;4.948;2023-03-24T11:40:16;14.20;99.90
11136;DHT22;5622;50.840;4.948;2023-03-24T11:42:46;14.20;99.90
11136;DHT22;5622;50.840;4.948;2023-03-24T11:45:27;14.20;99.90
11136;DHT22;5622;50.840;4.948;2023-03-24T11:47:56;14.20;99.90
11136;DHT22;5622;50.840;4.948;2023-03-24T11:50:27;14.20;99.90
11136;DHT22;5622;50.840;4.948;2023-03-24T11:52:59;14.20;99.90
11136;DHT22;5622;50.840;4.948;2023-03-24T11:55:41;14.30;99.90
11136;DHT22;5622;50.840;4.948;2023-03-24T11:58:21;14.30;99.90
11136;DHT22;5622;50.840;4.948;2023-03-24T12:00:55;14.40;99.90
11136;DHT22;5622;50.840;4.948;2023-03-24T12:03:37;14.50;99.90
11136;DHT22;5622;50.840;4.948;2023-03-24T12:06:22;14.60;99.90
11136;DHT22;5622;50.840;4.948;2023-03-24T12:09:00;14.70;99.90
11136;DHT22;5622;50.840;4.948;2023-03-24T12:11:40;14.70;99.90
11136;DHT22;5622;50.840;4.948;2023-03-24T12:14:13;14.70;99.90
11136;DHT22;5622;50.840;4.948;2023-03-24T12:16:48;14.70;99.90
11136;DHT22;5622;50.840;4.948;2023-03-24T12:19:48;14.80;99.90
11136;DHT22;5622;50.840;4.948;2023-03-24T12:22:26;14.80;99.90
11136;DHT22;5622;50.840;4.948;2023-03-24T12:25:17;14.90;99.90
11136;DHT22;5622;50.840;4.948;2023-03-24T12:27:52;14.90;99.90
11136;DHT22;5622;50.840;4.948;2023-03-24T12:30:29;14.90;99.90
11136;DHT22;5622;50.840;4.948;2023-03-24T12:33:07;14.80;99.90
11136;DHT22;5622;50.840;4.948;2023-03-24T12:35:53;14.60;99.90
11136;DHT22;5622;50.840;4.948;2023-03-24T12:38:33;14.20;99.90
11136;DHT22;5622;50.840;4.948;2023-03-24T12:41:17;13.90;99.90
11136;DHT22;5622;50.840;4.948;2023-03-24T12:43:52;13.60;99.90
11136;DHT22;5622;50.840;4.948;2023-03-24T12:46:33;13.50;99.90
11136;DHT22;5622;50.840;4.948;2023-03-24T12:49:19;13.50;99.90
11136;DHT22;5622;50.840;4.948;2023-03-24T12:51:56;13.50;99.90
11136;DHT22;5622;50.840;4.948;2023-03-24T12:54:35;13.50;99.90
11136;DHT22;5622;50.840;4.948;2023-03-24T12:57:07;13.50;99.90
11136;DHT22;5622;50.840;4.948;2023-03-24T12:59:39;13.50;99.90
11136;DHT22;5622;50.840;4.948;2023-03-24T13:02:18;13.60;99.90
11136;DHT22;5622;50.840;4.948;2023-03-24T13:04:51;13.70;99.90
11136;DHT22;5622;50.840;4.948;2023-03-24T13:07:22;13.80;99.90
11136;DHT22;5622;50.840;4.948;2023-03-24T13:09:55;13.90;99.90
11136;DHT22;5622;50.840;4.948;2023-03-24T13:12:26;14.10;99.90
11136;DHT22;5622;50.840;4.948;2023-03-24T13:15:02;14.00;99.90
11136;DHT22;5622;50.840;4.948;2023-03-24T13:17:35;14.10;99.90
11136;DHT22;5622;50.840;4.948;2023-03-24T13:20:06;14.20;99.90
11136;DHT22;5622;50.840;4.948;2023-03-24T13:22:38;14.30;99.90
11136;DHT22;5622;50.840;4.948;2023-03-24T13:25:16;14.30;99.90
11136;DHT22;5622;50.840;4.948;2023-03-24T13:27:49;14.30;99.90
11136;DHT22;5622;50.840;4.948;2023-03-24T13:30:32;14.40;99.90
11136;DHT22;5622;50.840;4.948;2023-03-24T13:33:04;14.40;99.90
11136;DHT22;5622;50.840;4.948;2023-03-24T13:35:48;14.40;99.90
11136;DHT22;5622;50.840;4.948;2023-03-24T13:38:36;14.40;99.90
11136;DHT22;5622;50.840;4.948;2023-03-24T13:41:06;14.40;99.90
11136;DHT22;5622;50.840;4.948;2023-03-24T13:43:45;14.40;99.90
11136;DHT22;5622;50.840;4.948;2023-03-24T13:46:13;14.30;99.90
11136;DHT22;5622;50.840;4.948;2023-03-24T13:48:43;14.20;99.90
11136;DHT22;5622;50.840;4.948;2023-03-24T13:51:16;14.10;99.90
11136;DHT22;5622;50.840;4.948;2023-03-24T13:53:49;13.90;99.90
11136;DHT22;5622;50.840;4.948;2023-03-24T13:56:24;13.30;99.90
11136;DHT22;5622;50.840;4.948;2023-03-24T13:59:19;12.90;99.90
11136;DHT22;5622;50.840;4.948;2023-03-24T14:02:15;12.60;99.90
11136;DHT22;5622;50.840;4.948;2023-03-24T14:04:46;12.50;99.90
11136;DHT22;5622;50.840;4.948;2023-03-24T14:07:30;12.30;99.90
11136;DHT22;5622;50.840;4.948;2023-03-24T14:09:59;12.20;99.90
11136;DHT22;5622;50.840;4.948;2023-03-24T14:12:30;12.10;99.90
11136;DHT22;5622;50.840;4.948;2023-03-24T14:15:16;12.10;99.90
11136;DHT22;5622;50.840;4.948;2023-03-24T14:17:46;12.10;99.90
11136;DHT22;5622;50.840;4.948;2023-03-24T14:20:26;12.10;99.90
11136;DHT22;5622;50.840;4.948;2023-03-24T14:22:55;12.10;99.90
11136;DHT22;5622;50.840;4.948;2023-03-24T14:25:28;12.00;99.90
11136;DHT22;5622;50.840;4.948;2023-03-24T14:28:18;12.00;99.90
11136;DHT22;5622;50.840;4.948;2023-03-24T14:31:00;12.00;99.90
11136;DHT22;5622;50.840;4.948;2023-03-24T14:33:28;11.90;99.90
11136;DHT22;5622;50.840;4.948;2023-03-24T14:36:01;11.90;99.90
11136;DHT22;5622;50.840;4.948;2023-03-24T14:38:35;11.90;99.90
11136;DHT22;5622;50.840;4.948;2023-03-24T14:41:07;12.00;99.90
11136;DHT22;5622;50.840;4.948;2023-03-24T14:43:57;11.90;99.90
11136;DHT22;5622;50.840;4.948;2023-03-24T14:46:39;12.00;99.90
11136;DHT22;5622;50.840;4.948;2023-03-24T14:49:18;11.90;99.90
11136;DHT22;5622;50.840;4.948;2023-03-24T14:51:55;12.00;99.90
11136;DHT22;5622;50.840;4.948;2023-03-24T14:54:28;12.00;99.90
11136;DHT22;5622;50.840;4.948;2023-03-24T14:56:57;12.00;99.90
11136;DHT22;5622;50.840;4.948;2023-03-24T14:59:32;12.00;99.90
11136;DHT22;5622;50.840;4.948;2023-03-24T15:02:10;12.00;99.90
11136;DHT22;5622;50.840;4.948;2023-03-24T15:04:39;12.10;99.90
11136;DHT22;5622;50.840;4.948;2023-03-24T15:07:11;12.20;99.90
11136;DHT22;5622;50.840;4.948;2023-03-24T15:09:47;12.40;99.90
11136;DHT22;5622;50.840;4.948;2023-03-24T15:12:15;12.40;99.90
11136;DHT22;5622;50.840;4.948;2023-03-24T15:14:43;12.40;99.90
11136;DHT22;5622;50.840;4.948;2023-03-24T15:17:17;12.50;99.90
11136;DHT22;5622;50.840;4.948;2023-03-24T15:19:49;12.60;99.90
11136;DHT22;5622;50.840;4.948;2023-03-24T15:22:18;12.60;99.90
11136;DHT22;5622;50.840;4.948;2023-03-24T15:24:47;12.70;99.90
11136;DHT22;5622;50.840;4.948;2023-03-24T15:27:28;12.70;99.90
11136;DHT22;5622;50.840;4.948;2023-03-24T15:29:59;12.80;99.90
11136;DHT22;5622;50.840;4.948;2023-03-24T15:32:28;12.90;99.90
11136;DHT22;5622;50.840;4.948;2023-03-24T15:35:03;12.90;99.90
11136;DHT22;5622;50.840;4.948;2023-03-24T15:37:34;13.00;99.90
11136;DHT22;5622;50.840;4.948;2023-03-24T15:40:03;13.10;99.90
11136;DHT22;5622;50.840;4.948;2023-03-24T15:42:32;13.10;99.90
11136;DHT22;5622;50.840;4.948;2023-03-24T15:45:16;13.10;99.90
11136;DHT22;5622;50.840;4.948;2023-03-24T15:47:54;13.10;99.90
11136;DHT22;5622;50.840;4.948;2023-03-24T15:50:37;13.20;99.90
11136;DHT22;5622;50.840;4.948;2023-03-24T15:53:23;13.10;99.90
11136;DHT22;5622;50.840;4.948;2023-03-24T15:56:03;13.20;99.90
11136;DHT22;5622;50.840;4.948;2023-03-24T15:58:45;13.20;99.90
11136;DHT22;5622;50.840;4.948;2023-03-24T16:01:15;13.20;99.90
11136;DHT22;5622;50.840;4.948;2023-03-24T16:03:50;13.20;99.90
11136;DHT22;5622;50.840;4.948;2023-03-24T16:06:26;13.20;99.90
11136;DHT22;5622;50.840;4.948;2023-03-24T16:09:18;13.20;99.90
11136;DHT22;5622;50.840;4.948;2023-03-24T16:11:56;13.10;99.90
11136;DHT22;5622;50.840;4.948;2023-03-24T16:14:25;13.10;99.90
11136;DHT22;5622;50.840;4.948;2023-03-24T16:16:53;13.10;99.90
11136;DHT22;5622;50.840;4.948;2023-03-24T16:19:36;13.10;99.90
11136;DHT22;5622;50.840;4.948;2023-03-24T16:22:08;13.10;99.90
11136;DHT22;5622;50.840;4.948;2023-03-24T16:24:44;13.10;99.90
11136;DHT22;5622;50.840;4.948;2023-03-24T16:27:14;13.10;99.90
11136;DHT22;5622;50.840;4.948;2023-03-24T16:29:41;13.10;99.90
11136;DHT22;5622;50.840;4.948;2023-03-24T16:32:09;13.10;99.90
11136;DHT22;5622;50.840;4.948;2023-03-24T16:34:36;13.00;99.90